createdAt,value
2017-08-26T00:00:54.488Z,89.94
2017-08-26T00:02:05.799Z,91.26
2017-08-26T00:03:11.671Z,90.96
2017-08-26T00:04:17.729Z,90.86
2017-08-26T00:05:23.812Z,90.29
2017-08-26T00:06:29.850Z,90.49
2017-08-26T00:07:35.932Z,89.77
2017-08-26T00:08:41.788Z,89.35
2017-08-26T00:09:47.900Z,89.74
2017-08-26T00:10:53.950Z,90.46
2017-08-26T00:11:59.991Z,91.08
2017-08-26T00:13:06.979Z,91.31
2017-08-26T00:14:13.027Z,91.72
2017-08-26T00:15:19.978Z,92.43
2017-08-26T00:16:26.016Z,92.18
2017-08-26T00:17:33.076Z,92.89
2017-08-26T00:18:39.174Z,93.09
2017-08-26T00:19:45.231Z,93.50
2017-08-26T00:20:52.403Z,92.96
2017-08-26T00:21:58.455Z,93.30
2017-08-26T00:23:04.507Z,93.46
2017-08-26T00:24:10.795Z,93.17
2017-08-26T00:25:17.787Z,93.21
2017-08-26T00:26:24.754Z,93.29
2017-08-26T00:27:31.611Z,92.81
2017-08-26T00:28:38.469Z,93.38
2017-08-26T00:29:44.562Z,93.23
2017-08-26T00:30:50.983Z,93.76
2017-08-26T00:31:58.046Z,94.06
2017-08-26T00:33:03.570Z,94.15
2017-08-26T00:34:09.636Z,94.15
2017-08-26T00:35:15.758Z,93.96
2017-08-26T00:36:21.812Z,93.12
2017-08-26T00:37:27.836Z,92.73
2017-08-26T00:38:34.783Z,92.75
2017-08-26T00:39:41.037Z,92.42
2017-08-26T00:40:47.859Z,93.26
2017-08-26T00:41:53.921Z,93.72
2017-08-26T00:42:59.763Z,93.52
2017-08-26T00:44:05.804Z,93.24
2017-08-26T00:45:11.480Z,93.15
2017-08-26T00:46:17.572Z,93.78
2017-08-26T00:47:23.634Z,93.52
2017-08-26T00:48:29.688Z,92.56
2017-08-26T00:49:35.746Z,92.20
2017-08-26T00:50:41.455Z,91.87
2017-08-26T00:51:47.650Z,92.33
2017-08-26T00:52:54.330Z,92.29
2017-08-26T00:54:00.380Z,92.87
2017-08-26T00:55:06.435Z,93.22
2017-08-26T00:56:12.491Z,93.18
2017-08-26T00:57:18.563Z,93.64
2017-08-26T00:58:25.339Z,94.22
2017-08-26T00:59:31.399Z,94.28
2017-08-26T01:00:37.693Z,93.71
2017-08-26T01:01:44.017Z,93.79
2017-08-26T01:02:49.556Z,93.11
2017-08-26T01:03:55.631Z,93.12
2017-08-26T01:05:01.497Z,92.73
2017-08-26T01:06:07.659Z,92.04
2017-08-26T01:07:18.353Z,91.51
2017-08-26T01:08:23.915Z,90.99
2017-08-26T01:09:30.332Z,91.06
2017-08-26T01:10:36.360Z,91.48
2017-08-26T01:11:44.216Z,92.18
2017-08-26T01:12:50.261Z,93.38
2017-08-26T01:13:56.530Z,94.14
2017-08-26T01:15:02.411Z,94.00
2017-08-26T01:16:08.470Z,93.55
2017-08-26T01:17:15.320Z,93.67
2017-08-26T01:18:21.362Z,93.43
2017-08-26T01:19:27.436Z,93.59
2017-08-26T01:20:33.355Z,94.08
2017-08-26T01:21:38.751Z,93.82
2017-08-26T01:22:44.833Z,93.42
2017-08-26T01:23:51.324Z,93.54
2017-08-26T01:24:57.445Z,93.90
2017-08-26T01:26:03.531Z,93.67
2017-08-26T01:27:09.672Z,93.38
2017-08-26T01:28:15.351Z,92.88
2017-08-26T01:29:21.419Z,92.29
2017-08-26T01:30:27.304Z,91.74
2017-08-26T01:31:33.342Z,91.56
2017-08-26T01:32:39.269Z,91.21
2017-08-26T01:33:46.196Z,91.00
2017-08-26T01:34:52.397Z,91.41
2017-08-26T01:35:58.755Z,91.84
2017-08-26T01:37:05.639Z,92.24
2017-08-26T01:38:12.542Z,92.76
2017-08-26T01:39:18.740Z,92.47
2017-08-26T01:40:24.819Z,93.77
2017-08-26T01:41:30.907Z,93.42
2017-08-26T01:42:36.956Z,93.52
2017-08-26T01:43:42.999Z,93.76
2017-08-26T01:44:49.064Z,93.48
2017-08-26T01:45:56.751Z,93.39
2017-08-26T01:47:02.854Z,93.81
2017-08-26T01:48:08.902Z,93.81
2017-08-26T01:49:14.951Z,94.24
2017-08-26T01:50:21.626Z,94.42
2017-08-26T01:51:28.651Z,93.94
2017-08-26T01:52:34.768Z,94.31
2017-08-26T01:53:40.854Z,94.18
2017-08-26T01:54:47.592Z,93.95
2017-08-26T01:55:53.924Z,94.40
2017-08-26T01:57:00.112Z,94.70
2017-08-26T01:58:06.219Z,94.56
2017-08-26T01:59:12.303Z,94.48
2017-08-26T02:00:18.357Z,94.74
2017-08-26T02:01:24.284Z,94.87
2017-08-26T02:02:30.324Z,95.39
2017-08-26T02:03:36.409Z,94.91
2017-08-26T02:04:42.655Z,95.03
2017-08-26T02:05:48.513Z,94.83
2017-08-26T02:06:54.591Z,95.08
2017-08-26T02:08:01.109Z,94.63
2017-08-26T02:09:07.726Z,94.23
2017-08-26T02:10:13.778Z,93.70
2017-08-26T02:11:19.811Z,93.16
2017-08-26T02:12:25.870Z,92.83
2017-08-26T02:13:31.928Z,92.77
2017-08-26T02:14:38.028Z,92.72
2017-08-26T02:15:44.136Z,92.63
2017-08-26T02:16:50.173Z,92.57
2017-08-26T02:17:56.215Z,92.67
2017-08-26T02:19:02.278Z,93.01
2017-08-26T02:20:08.368Z,93.06
2017-08-26T02:21:15.352Z,93.12
2017-08-26T02:22:22.104Z,92.73
2017-08-26T02:23:28.158Z,94.00
2017-08-26T02:24:34.195Z,94.85
2017-08-26T02:25:40.294Z,95.15
2017-08-26T02:26:46.335Z,94.85
2017-08-26T02:27:52.375Z,95.05
2017-08-26T02:28:58.427Z,94.99
2017-08-26T02:30:04.466Z,94.60
2017-08-26T02:31:10.357Z,95.16
2017-08-26T02:32:16.440Z,95.47
2017-08-26T02:33:22.488Z,95.74
2017-08-26T02:34:28.555Z,95.67
2017-08-26T02:35:34.796Z,94.84
2017-08-26T02:36:40.877Z,93.89
2017-08-26T02:37:47.009Z,93.33
2017-08-26T02:38:53.072Z,93.26
2017-08-26T02:39:59.127Z,93.35
2017-08-26T02:41:05.177Z,93.49
2017-08-26T02:42:11.264Z,94.12
2017-08-26T02:43:17.146Z,94.20
2017-08-26T02:44:23.209Z,94.40
2017-08-26T02:45:29.260Z,94.53
2017-08-26T02:46:35.326Z,95.28
2017-08-26T02:47:41.433Z,95.32
2017-08-26T02:48:47.584Z,95.33
2017-08-26T02:49:53.629Z,94.96
2017-08-26T02:50:59.700Z,94.95
2017-08-26T02:52:05.751Z,95.60
2017-08-26T02:53:12.435Z,95.55
2017-08-26T02:54:18.477Z,94.85
2017-08-26T02:55:24.527Z,95.72
2017-08-26T02:56:30.582Z,95.54
2017-08-26T02:57:37.408Z,95.48
2017-08-26T02:58:43.531Z,95.53
2017-08-26T02:59:49.593Z,94.67
2017-08-26T03:00:55.637Z,93.95
2017-08-26T03:02:01.682Z,93.66
2017-08-26T03:03:07.735Z,93.40
2017-08-26T03:04:13.911Z,93.26
2017-08-26T03:05:19.986Z,93.29
2017-08-26T03:06:26.019Z,93.76
2017-08-26T03:07:31.867Z,94.70
2017-08-26T03:08:37.934Z,94.72
2017-08-26T03:09:57.023Z,94.47
2017-08-26T03:11:04.540Z,95.16
2017-08-26T03:12:15.042Z,95.74
2017-08-26T03:13:22.523Z,95.64
2017-08-26T03:14:31.693Z,95.78
2017-08-26T03:15:39.361Z,95.39
2017-08-26T03:16:49.447Z,95.38
2017-08-26T03:18:05.971Z,94.77
2017-08-26T03:19:12.822Z,94.48
2017-08-26T03:20:22.025Z,94.30
2017-08-26T03:21:29.897Z,94.85
2017-08-26T03:22:37.156Z,95.08
2017-08-26T03:23:43.219Z,95.36
2017-08-26T03:24:48.915Z,95.71
2017-08-26T03:25:55.901Z,95.78
2017-08-26T03:27:02.766Z,95.83
2017-08-26T03:28:08.824Z,95.68
2017-08-26T03:29:14.908Z,94.92
2017-08-26T03:30:21.329Z,94.08
2017-08-26T03:31:27.803Z,93.69
2017-08-26T03:32:34.774Z,93.51
2017-08-26T03:33:40.929Z,93.24
2017-08-26T03:34:47.092Z,92.80
2017-08-26T03:35:53.175Z,93.69
2017-08-26T03:37:00.006Z,94.29
2017-08-26T03:38:06.075Z,93.92
2017-08-26T03:39:12.402Z,94.32
2017-08-26T03:40:18.679Z,93.79
2017-08-26T03:41:24.995Z,93.75
2017-08-26T03:42:31.115Z,94.75
2017-08-26T03:43:37.154Z,94.70
2017-08-26T03:44:43.834Z,93.55
2017-08-26T03:45:49.887Z,92.46
2017-08-26T03:46:56.957Z,92.30
2017-08-26T03:48:03.044Z,92.24
2017-08-26T03:49:10.013Z,92.46
2017-08-26T03:50:16.068Z,92.75
2017-08-26T03:51:22.141Z,92.93
2017-08-26T03:52:29.543Z,92.98
2017-08-26T03:53:39.192Z,94.03
2017-08-26T03:54:45.971Z,94.03
2017-08-26T03:55:52.428Z,93.47
2017-08-26T03:56:58.484Z,94.17
2017-08-26T03:58:04.543Z,93.79
2017-08-26T03:59:10.631Z,93.24
2017-08-26T04:00:17.583Z,93.10
2017-08-26T04:01:23.646Z,93.24
2017-08-26T04:02:29.714Z,93.07
2017-08-26T04:03:35.769Z,92.83
2017-08-26T04:04:41.902Z,92.69
2017-08-26T04:05:49.082Z,92.76
2017-08-26T04:06:55.143Z,93.03
2017-08-26T04:08:02.275Z,94.88
2017-08-26T04:09:08.312Z,95.01
2017-08-26T04:10:17.193Z,94.47
2017-08-26T04:11:26.950Z,94.83
2017-08-26T04:12:39.510Z,94.26
2017-08-26T04:13:47.720Z,93.84
2017-08-26T04:14:55.938Z,93.92
2017-08-26T04:16:03.255Z,93.84
2017-08-26T04:17:12.341Z,94.55
2017-08-26T04:18:19.167Z,95.43
2017-08-26T04:19:26.190Z,95.76
2017-08-26T04:20:34.828Z,95.78
2017-08-26T04:21:41.638Z,95.42
2017-08-26T04:22:51.754Z,95.38
2017-08-26T04:24:03.162Z,95.35
2017-08-26T04:25:12.938Z,94.96
2017-08-26T04:26:19.742Z,94.28
2017-08-26T04:27:27.482Z,93.72
2017-08-26T04:28:37.518Z,93.26
2017-08-26T04:29:45.682Z,93.07
2017-08-26T04:30:53.549Z,92.89
2017-08-26T04:32:02.726Z,93.16
2017-08-26T04:33:09.292Z,93.64
2017-08-26T04:34:17.118Z,94.03
2017-08-26T04:35:24.950Z,93.86
2017-08-26T04:36:33.724Z,93.57
2017-08-26T04:37:44.984Z,92.76
2017-08-26T04:38:55.937Z,93.05
2017-08-26T04:40:04.191Z,92.65
2017-08-26T04:41:14.507Z,92.63
2017-08-26T04:42:24.227Z,92.50
2017-08-26T04:43:32.154Z,92.51
2017-08-26T04:44:40.414Z,92.77
2017-08-26T04:45:52.210Z,92.80
2017-08-26T04:46:58.514Z,92.54
2017-08-26T04:48:06.231Z,92.74
2017-08-26T04:49:15.292Z,92.59
2017-08-26T04:50:24.677Z,91.74
2017-08-26T04:51:31.317Z,91.62
2017-08-26T04:52:40.717Z,92.15
2017-08-26T04:53:49.166Z,92.16
2017-08-26T04:54:57.109Z,92.45
2017-08-26T04:56:07.097Z,92.64
2017-08-26T04:57:13.969Z,92.66
2017-08-26T04:58:22.632Z,93.48
2017-08-26T04:59:31.131Z,93.35
2017-08-26T05:00:38.769Z,93.75
2017-08-26T05:01:45.592Z,93.41
2017-08-26T05:02:56.652Z,92.65
2017-08-26T05:04:03.915Z,91.17
2017-08-26T05:05:11.634Z,91.13
2017-08-26T05:06:18.455Z,91.27
2017-08-26T05:07:27.706Z,90.97
2017-08-26T05:08:40.371Z,93.16
2017-08-26T05:09:48.917Z,93.06
2017-08-26T05:10:58.819Z,92.42
2017-08-26T05:12:08.270Z,91.77
2017-08-26T05:13:16.125Z,91.31
2017-08-26T05:14:23.741Z,91.45
2017-08-26T05:15:30.038Z,91.31
2017-08-26T05:16:39.286Z,90.90
2017-08-26T05:17:45.857Z,91.06
2017-08-26T05:18:51.911Z,91.82
2017-08-26T05:19:58.737Z,90.83
2017-08-26T05:21:05.506Z,90.81
2017-08-26T05:22:12.654Z,90.58
2017-08-26T05:23:19.523Z,90.34
2017-08-26T05:24:25.576Z,89.88
2017-08-26T05:25:33.488Z,89.79
2017-08-26T05:26:39.833Z,89.54
2017-08-26T05:27:45.912Z,89.19
2017-08-26T05:28:51.942Z,88.77
2017-08-26T05:29:57.970Z,89.15
2017-08-26T05:31:04.026Z,90.74
2017-08-26T05:32:10.888Z,89.97
2017-08-26T05:33:16.820Z,89.54
2017-08-26T05:34:22.758Z,89.21
2017-08-26T05:35:28.791Z,89.30
2017-08-26T05:36:34.833Z,89.14
2017-08-26T05:37:41.863Z,88.80
2017-08-26T05:38:48.039Z,88.80
2017-08-26T05:39:54.147Z,90.99
2017-08-26T05:41:00.218Z,91.07
2017-08-26T05:42:06.984Z,90.68
2017-08-26T05:43:13.123Z,89.59
2017-08-26T05:44:20.172Z,88.84
2017-08-26T05:45:26.067Z,88.82
2017-08-26T05:46:32.377Z,87.42
2017-08-26T05:47:40.294Z,87.01
2017-08-26T05:48:47.976Z,86.92
2017-08-26T05:49:54.243Z,88.42
2017-08-26T05:51:02.299Z,89.06
2017-08-26T05:52:13.248Z,87.69
2017-08-26T05:53:20.404Z,87.58
2017-08-26T05:54:26.546Z,88.93
2017-08-26T05:55:33.350Z,88.48
2017-08-26T05:56:39.730Z,88.56
2017-08-26T05:57:49.175Z,88.35
2017-08-26T05:58:57.047Z,87.46
2017-08-26T06:00:05.288Z,86.79
2017-08-26T06:01:11.454Z,87.31
2017-08-26T06:02:17.496Z,88.17
2017-08-26T06:03:24.069Z,88.16
2017-08-26T06:04:30.101Z,88.32
2017-08-26T06:05:37.973Z,88.46
2017-08-26T06:06:44.067Z,88.67
2017-08-26T06:07:50.108Z,88.25
2017-08-26T06:08:56.150Z,88.62
2017-08-26T06:10:02.659Z,88.29
2017-08-26T06:11:08.718Z,88.15
2017-08-26T06:12:15.407Z,88.64
2017-08-26T06:13:21.460Z,88.31
2017-08-26T06:14:27.506Z,87.59
2017-08-26T06:15:36.265Z,88.18
2017-08-26T06:16:42.390Z,88.17
2017-08-26T06:17:48.568Z,88.12
2017-08-26T06:18:54.623Z,87.62
2017-08-26T06:20:00.671Z,88.61
2017-08-26T06:21:06.179Z,88.48
2017-08-26T06:22:12.233Z,88.75
2017-08-26T06:23:18.299Z,88.86
2017-08-26T06:24:24.355Z,88.06
2017-08-26T06:25:30.416Z,88.51
2017-08-26T06:26:37.180Z,88.80
2017-08-26T06:27:43.235Z,88.46
2017-08-26T06:28:49.346Z,89.20
2017-08-26T06:29:55.396Z,87.97
2017-08-26T06:31:01.456Z,87.90
2017-08-26T06:32:07.516Z,88.15
2017-08-26T06:33:13.572Z,88.33
2017-08-26T06:34:19.649Z,88.08
2017-08-26T06:35:25.775Z,87.06
2017-08-26T06:36:31.811Z,86.77
2017-08-26T06:37:37.858Z,86.12
2017-08-26T06:38:43.906Z,86.21
2017-08-26T06:39:49.987Z,86.28
2017-08-26T06:40:56.031Z,85.56
2017-08-26T06:42:02.085Z,85.07
2017-08-26T06:43:08.160Z,85.28
2017-08-26T06:44:14.221Z,86.81
2017-08-26T06:45:20.327Z,86.94
2017-08-26T06:46:26.367Z,86.73
2017-08-26T06:47:32.415Z,85.10
2017-08-26T06:48:38.476Z,83.95
2017-08-26T06:49:44.541Z,83.36
2017-08-26T06:50:50.620Z,83.35
2017-08-26T06:51:56.370Z,84.43
2017-08-26T06:53:35.183Z,84.39
2017-08-26T06:54:47.873Z,85.15
2017-08-26T06:55:54.015Z,86.02
2017-08-26T06:57:00.125Z,85.39
2017-08-26T06:58:06.249Z,84.53
2017-08-26T06:59:12.347Z,84.23
2017-08-26T07:00:18.404Z,83.16
2017-08-26T07:01:27.815Z,82.89
2017-08-26T07:02:35.180Z,83.19
2017-08-26T07:03:41.343Z,85.01
2017-08-26T07:04:50.865Z,84.33
2017-08-26T07:05:57.756Z,83.29
2017-08-26T07:07:05.457Z,83.41
2017-08-26T07:08:12.658Z,83.50
2017-08-26T07:09:19.485Z,84.72
2017-08-26T07:10:27.422Z,84.50
2017-08-26T07:11:34.249Z,83.71
2017-08-26T07:12:41.906Z,83.78
2017-08-26T07:13:49.504Z,83.17
2017-08-26T07:14:56.670Z,81.38
2017-08-26T07:16:03.268Z,81.50
2017-08-26T07:17:11.050Z,81.32
2017-08-26T07:18:18.966Z,81.48
2017-08-26T07:19:26.766Z,81.98
2017-08-26T07:20:33.233Z,81.84
2017-08-26T07:21:41.695Z,80.71
2017-08-26T07:22:49.817Z,82.68
2017-08-26T07:23:57.298Z,81.96
2017-08-26T07:25:04.699Z,82.24
2017-08-26T07:26:10.748Z,81.86
2017-08-26T07:27:18.071Z,81.42
2017-08-26T07:28:25.408Z,81.96
2017-08-26T07:29:32.210Z,82.28
2017-08-26T07:30:39.326Z,82.88
2017-08-26T07:31:47.041Z,83.25
2017-08-26T07:32:56.129Z,82.79
2017-08-26T07:34:03.546Z,82.54
2017-08-26T07:35:10.515Z,82.26
2017-08-26T07:36:18.296Z,83.73
2017-08-26T07:37:26.131Z,82.97
2017-08-26T07:38:33.056Z,82.29
2017-08-26T07:39:40.250Z,82.27
2017-08-26T07:40:48.037Z,82.46
2017-08-26T07:41:56.086Z,81.54
2017-08-26T07:43:03.446Z,81.62
2017-08-26T07:44:10.602Z,82.78
2017-08-26T07:45:18.611Z,82.54
2017-08-26T07:46:25.932Z,82.88
2017-08-26T07:47:31.978Z,83.33
2017-08-26T07:48:38.039Z,83.77
2017-08-26T07:49:46.215Z,83.98
2017-08-26T07:50:53.748Z,83.74
2017-08-26T07:52:01.626Z,83.16
2017-08-26T07:53:10.028Z,84.58
2017-08-26T07:54:18.280Z,86.23
2017-08-26T07:55:27.040Z,85.69
2017-08-26T07:56:34.437Z,86.21
2017-08-26T07:57:41.157Z,86.28
2017-08-26T07:58:47.258Z,85.87
2017-08-26T07:59:55.096Z,85.38
2017-08-26T08:01:04.525Z,85.85
2017-08-26T08:02:11.277Z,85.67
2017-08-26T08:03:18.161Z,86.36
2017-08-26T08:04:27.804Z,85.95
2017-08-26T08:05:37.185Z,85.95
2017-08-26T08:06:43.596Z,86.65
2017-08-26T08:07:50.091Z,86.71
2017-08-26T08:09:01.696Z,86.37
2017-08-26T08:10:09.496Z,85.97
2017-08-26T08:11:17.856Z,85.77
2017-08-26T08:12:25.766Z,85.80
2017-08-26T08:13:31.953Z,86.12
2017-08-26T08:14:39.344Z,87.10
2017-08-26T08:15:47.145Z,87.50
2017-08-26T08:16:56.133Z,87.00
2017-08-26T08:18:05.029Z,87.64
2017-08-26T08:19:13.644Z,88.49
2017-08-26T08:20:21.210Z,88.36
2017-08-26T08:21:27.856Z,88.54
2017-08-26T08:22:35.341Z,88.35
2017-08-26T08:23:44.667Z,88.61
2017-08-26T08:24:52.897Z,89.00
2017-08-26T08:26:03.592Z,89.05
2017-08-26T08:27:12.014Z,89.31
2017-08-26T08:28:19.530Z,89.00
2017-08-26T08:29:28.214Z,88.89
2017-08-26T08:30:36.373Z,88.80
2017-08-26T08:31:44.215Z,89.42
2017-08-26T08:32:53.456Z,89.51
2017-08-26T08:34:00.129Z,89.74
2017-08-26T08:35:07.700Z,89.69
2017-08-26T08:38:29.513Z,88.04
2017-08-26T08:39:39.655Z,89.31
2017-08-26T08:40:47.668Z,88.77
2017-08-26T08:41:56.156Z,87.80
2017-08-26T08:43:03.463Z,87.26
2017-08-26T08:44:09.815Z,86.72
2017-08-26T08:45:17.969Z,86.13
2017-08-26T08:46:24.548Z,86.24
2017-08-26T08:47:30.863Z,85.52
2017-08-26T08:48:39.027Z,85.04
2017-08-26T08:49:45.410Z,84.83
2017-08-26T08:50:51.519Z,85.18
2017-08-26T08:51:57.580Z,85.06
2017-08-26T08:53:03.612Z,85.93
2017-08-26T08:54:09.665Z,86.12
2017-08-26T08:55:15.499Z,85.13
2017-08-26T08:56:21.391Z,84.79
2017-08-26T08:57:27.261Z,84.18
2017-08-26T08:58:33.318Z,84.30
2017-08-26T08:59:39.392Z,84.11
2017-08-26T09:00:45.095Z,84.18
2017-08-26T09:01:51.158Z,83.91
2017-08-26T09:02:57.205Z,83.00
2017-08-26T09:04:03.252Z,82.15
2017-08-26T09:05:09.333Z,83.05
2017-08-26T09:06:15.384Z,83.19
2017-08-26T09:07:21.637Z,82.71
2017-08-26T09:08:27.683Z,83.07
2017-08-26T09:09:33.768Z,82.80
2017-08-26T09:10:39.932Z,82.95
2017-08-26T09:11:45.978Z,82.87
2017-08-26T09:12:52.095Z,82.78
2017-08-26T09:13:58.174Z,83.01
2017-08-26T09:15:04.248Z,84.20
2017-08-26T09:16:10.311Z,83.63
2017-08-26T09:17:16.386Z,83.75
2017-08-26T09:18:22.494Z,83.40
2017-08-26T09:19:28.557Z,82.79
2017-08-26T09:20:34.591Z,84.22
2017-08-26T09:21:40.640Z,84.26
2017-08-26T09:22:46.496Z,83.77
2017-08-26T09:23:52.576Z,83.19
2017-08-26T09:24:58.638Z,82.28
2017-08-26T09:26:05.807Z,82.75
2017-08-26T09:27:11.852Z,85.27
2017-08-26T09:28:17.894Z,85.92
2017-08-26T09:29:23.987Z,85.23
2017-08-26T09:30:30.062Z,84.06
2017-08-26T09:31:36.115Z,84.24
2017-08-26T09:32:42.202Z,83.69
2017-08-26T09:33:49.224Z,83.70
2017-08-26T09:34:55.288Z,80.99
2017-08-26T09:36:01.346Z,81.03
2017-08-26T09:37:07.405Z,79.68
2017-08-26T09:38:13.439Z,79.15
2017-08-26T09:39:19.502Z,80.20
2017-08-26T09:40:25.636Z,78.27
2017-08-26T09:41:31.476Z,79.12
2017-08-26T09:42:37.502Z,78.98
2017-08-26T09:43:43.559Z,79.27
2017-08-26T09:44:49.594Z,79.55
2017-08-26T09:45:55.668Z,77.46
2017-08-26T09:47:01.707Z,76.98
2017-08-26T09:48:07.789Z,77.82
2017-08-26T09:49:13.664Z,78.28
2017-08-26T09:50:19.714Z,77.39
2017-08-26T09:51:25.639Z,78.35
2017-08-26T09:52:31.674Z,79.25
2017-08-26T09:53:37.733Z,79.30
2017-08-26T09:54:43.777Z,80.63
2017-08-26T09:55:49.832Z,80.62
2017-08-26T09:56:55.910Z,80.65
2017-08-26T09:58:01.977Z,80.18
2017-08-26T09:59:08.014Z,79.68
2017-08-26T10:00:14.067Z,79.15
2017-08-26T10:01:20.103Z,78.48
2017-08-26T10:02:26.220Z,78.46
2017-08-26T10:03:32.272Z,78.39
2017-08-26T10:04:38.332Z,76.43
2017-08-26T10:05:44.376Z,76.62
2017-08-26T10:06:50.417Z,76.84
2017-08-26T10:07:56.538Z,77.28
2017-08-26T10:09:02.587Z,76.66
2017-08-26T10:10:08.451Z,76.27
2017-08-26T10:11:14.505Z,77.06
2017-08-26T10:12:20.611Z,78.64
2017-08-26T10:13:26.710Z,78.57
2017-08-26T10:14:32.767Z,78.03
2017-08-26T10:15:38.805Z,78.65
2017-08-26T10:16:44.850Z,77.93
2017-08-26T10:17:50.913Z,76.67
2017-08-26T10:18:56.990Z,76.59
2017-08-26T10:20:03.083Z,77.07
2017-08-26T10:21:09.148Z,78.86
2017-08-26T10:22:15.195Z,79.72
2017-08-26T10:23:21.047Z,80.41
2017-08-26T10:24:27.112Z,80.51
2017-08-26T10:25:33.165Z,79.71
2017-08-26T10:26:39.201Z,79.49
2017-08-26T10:27:45.281Z,78.71
2017-08-26T10:28:51.343Z,81.50
2017-08-26T10:29:57.294Z,81.18
2017-08-26T10:31:03.172Z,80.02
2017-08-26T10:32:09.027Z,80.39
2017-08-26T10:33:15.496Z,78.59
2017-08-26T10:34:21.363Z,78.72
2017-08-26T10:35:27.549Z,78.82
2017-08-26T10:36:33.425Z,77.51
2017-08-26T10:37:39.296Z,76.22
2017-08-26T10:38:45.143Z,75.38
2017-08-26T10:39:51.017Z,75.74
2017-08-26T10:40:56.923Z,75.86
2017-08-26T10:42:02.820Z,76.20
2017-08-26T10:43:08.681Z,75.79
2017-08-26T10:44:14.544Z,74.90
2017-08-26T10:45:20.389Z,73.44
2017-08-26T10:46:26.282Z,74.40
2017-08-26T10:47:32.258Z,74.50
2017-08-26T10:48:37.913Z,74.66
2017-08-26T10:49:43.570Z,73.74
2017-08-26T10:50:49.431Z,74.10
2017-08-26T10:51:55.334Z,74.65
2017-08-26T10:53:01.186Z,74.50
2017-08-26T10:54:07.246Z,73.19
2017-08-26T10:55:13.309Z,72.60
2017-08-26T10:56:19.146Z,72.91
2017-08-26T10:57:25.901Z,71.37
2017-08-26T10:58:31.766Z,72.76
2017-08-26T10:59:37.815Z,72.21
2017-08-26T11:00:43.870Z,71.43
2017-08-26T11:01:49.915Z,71.02
2017-08-26T11:02:56.011Z,71.37
2017-08-26T11:04:01.867Z,70.12
2017-08-26T11:05:07.749Z,70.82
2017-08-26T11:06:13.802Z,70.93
2017-08-26T11:07:19.871Z,70.67
2017-08-26T11:08:25.961Z,69.31
2017-08-26T11:09:32.012Z,69.39
2017-08-26T11:10:38.058Z,71.41
2017-08-26T11:11:44.124Z,70.05
2017-08-26T11:12:50.185Z,71.33
2017-08-26T11:13:56.251Z,70.53
2017-08-26T11:15:02.307Z,68.02
2017-08-26T11:16:08.355Z,68.88
2017-08-26T11:17:14.416Z,68.78
2017-08-26T11:18:20.494Z,69.65
2017-08-26T11:19:26.604Z,69.14
2017-08-26T11:20:32.456Z,69.08
2017-08-26T11:21:38.487Z,69.74
2017-08-26T11:22:44.337Z,71.82
2017-08-26T11:23:50.412Z,72.24
2017-08-26T11:24:56.503Z,73.77
2017-08-26T11:26:02.564Z,73.68
2017-08-26T11:27:08.414Z,71.54
2017-08-26T11:28:14.564Z,69.35
2017-08-26T11:29:20.618Z,70.15
2017-08-26T11:30:26.723Z,72.67
2017-08-26T11:31:32.786Z,72.34
2017-08-26T11:32:38.880Z,71.39
2017-08-26T11:33:44.935Z,72.14
2017-08-26T11:34:50.799Z,71.86
2017-08-26T11:35:56.868Z,73.41
2017-08-26T11:37:02.943Z,71.89
2017-08-26T11:38:08.995Z,71.20
2017-08-26T11:39:15.050Z,71.16
2017-08-26T11:40:21.114Z,68.17
2017-08-26T11:41:27.213Z,69.13
2017-08-26T11:42:33.271Z,70.08
2017-08-26T11:43:39.323Z,68.05
2017-08-26T11:44:45.375Z,67.05
2017-08-26T11:45:51.438Z,69.06
2017-08-26T11:46:57.218Z,66.80
2017-08-26T11:48:03.314Z,66.93
2017-08-26T11:49:09.359Z,69.43
2017-08-26T11:50:15.198Z,67.83
2017-08-26T11:51:21.251Z,65.49
2017-08-26T11:52:27.399Z,65.54
2017-08-26T11:53:33.470Z,66.11
2017-08-26T11:54:40.434Z,66.42
2017-08-26T11:55:46.538Z,66.55
2017-08-26T11:56:52.607Z,65.39
2017-08-26T11:57:58.737Z,66.04
2017-08-26T11:59:06.568Z,65.20
2017-08-26T12:00:14.090Z,67.23
2017-08-26T12:01:23.398Z,66.31
2017-08-26T12:02:31.434Z,67.45
2017-08-26T12:03:39.549Z,65.46
2017-08-26T12:04:48.062Z,66.55
2017-08-26T12:05:57.142Z,66.02
2017-08-26T12:07:06.904Z,66.75
2017-08-26T12:08:18.934Z,67.13
2017-08-26T12:09:26.483Z,68.63
2017-08-26T12:10:33.394Z,67.21
2017-08-26T12:11:40.420Z,68.21
2017-08-26T12:12:46.475Z,65.13
2017-08-26T12:13:52.979Z,68.13
2017-08-26T12:14:59.552Z,67.92
2017-08-26T12:16:05.962Z,66.72
2017-08-26T12:17:13.972Z,66.25
2017-08-26T12:18:22.434Z,63.28
2017-08-26T12:19:30.855Z,64.29
2017-08-26T12:20:40.215Z,66.73
2017-08-26T12:21:49.251Z,64.72
2017-08-26T12:22:56.518Z,65.60
2017-08-26T12:24:02.937Z,64.71
2017-08-26T12:25:10.535Z,64.35
2017-08-26T12:26:20.268Z,64.43
2017-08-26T12:27:26.780Z,62.27
2017-08-26T12:28:34.743Z,60.24
2017-08-26T12:29:42.843Z,62.12
2017-08-26T12:30:48.964Z,65.19
2017-08-26T12:31:59.632Z,63.79
2017-08-26T12:33:05.760Z,64.65
2017-08-26T12:34:11.790Z,64.76
2017-08-26T12:35:17.829Z,63.86
2017-08-26T12:36:23.868Z,64.08
2017-08-26T12:37:29.954Z,64.16
2017-08-26T12:38:35.987Z,64.29
2017-08-26T12:39:42.007Z,64.72
2017-08-26T12:40:48.116Z,65.29
2017-08-26T12:41:53.948Z,66.22
2017-08-26T12:43:00.021Z,62.72
2017-08-26T12:44:06.086Z,63.20
2017-08-26T12:45:12.152Z,65.08
2017-08-26T12:46:18.184Z,65.53
2017-08-26T12:47:24.219Z,65.80
2017-08-26T12:48:30.317Z,63.22
2017-08-26T12:49:36.141Z,62.85
2017-08-26T12:50:42.028Z,64.20
2017-08-26T12:51:47.929Z,63.37
2017-08-26T12:52:53.774Z,62.83
2017-08-26T12:53:59.659Z,61.93
2017-08-26T12:55:05.496Z,62.70
2017-08-26T12:56:11.340Z,62.72
2017-08-26T12:57:17.159Z,63.94
2017-08-26T12:58:23.000Z,63.71
2017-08-26T12:59:28.851Z,63.81
2017-08-26T13:00:34.666Z,63.70
2017-08-26T13:01:40.511Z,63.97
2017-08-26T13:02:46.339Z,63.82
2017-08-26T13:03:52.169Z,64.12
2017-08-26T13:04:58.018Z,65.70
2017-08-26T13:06:03.864Z,64.24
2017-08-26T13:07:09.911Z,62.71
2017-08-26T13:08:15.745Z,62.60
2017-08-26T13:09:21.572Z,62.34
2017-08-26T13:10:27.443Z,63.69
2017-08-26T13:11:33.267Z,63.67
2017-08-26T13:12:39.103Z,62.72
2017-08-26T13:13:44.932Z,61.81
2017-08-26T13:14:50.753Z,62.80
2017-08-26T13:15:56.344Z,62.96
2017-08-26T13:17:01.896Z,62.07
2017-08-26T13:18:07.727Z,62.75
2017-08-26T13:19:13.564Z,60.69
2017-08-26T13:20:19.406Z,64.87
2017-08-26T13:21:25.296Z,63.62
2017-08-26T13:22:30.835Z,63.25
2017-08-26T13:23:36.694Z,62.55
2017-08-26T13:24:42.557Z,62.98
2017-08-26T13:25:48.455Z,61.28
2017-08-26T13:26:54.584Z,60.88
2017-08-26T13:28:00.412Z,61.27
2017-08-26T13:29:05.963Z,62.39
2017-08-26T13:30:11.835Z,62.21
2017-08-26T13:31:17.671Z,61.82
2017-08-26T13:32:23.535Z,61.75
2017-08-26T13:33:29.379Z,61.61
2017-08-26T13:34:34.923Z,61.24
2017-08-26T13:35:40.744Z,61.22
2017-08-26T13:36:46.290Z,63.22
2017-08-26T13:37:52.157Z,63.01
2017-08-26T13:38:57.694Z,62.71
2017-08-26T13:40:03.547Z,61.60
2017-08-26T13:41:09.363Z,63.15
2017-08-26T13:42:15.698Z,62.39
2017-08-26T13:43:21.575Z,61.86
2017-08-26T13:44:27.127Z,62.29
2017-08-26T13:45:32.962Z,62.53
2017-08-26T13:46:38.497Z,62.92
2017-08-26T13:47:44.323Z,61.53
2017-08-26T13:48:50.175Z,60.61
2017-08-26T13:49:55.751Z,60.13
2017-08-26T13:51:01.291Z,61.91
2017-08-26T13:52:08.054Z,60.74
2017-08-26T13:53:13.893Z,59.50
2017-08-26T13:54:19.734Z,58.49
2017-08-26T13:55:25.295Z,58.92
2017-08-26T13:56:30.829Z,63.23
2017-08-26T13:57:36.376Z,58.35
2017-08-26T13:58:42.202Z,59.60
2017-08-26T13:59:47.892Z,58.40
2017-08-26T14:00:53.710Z,59.21
2017-08-26T14:01:59.249Z,58.51
2017-08-26T14:03:04.794Z,58.56
2017-08-26T14:04:10.360Z,60.05
2017-08-26T14:05:16.240Z,59.92
2017-08-26T14:06:22.059Z,60.05
2017-08-26T14:07:27.879Z,59.20
2017-08-26T14:08:33.682Z,61.88
2017-08-26T14:09:39.507Z,62.10
2017-08-26T14:10:46.070Z,62.11
2017-08-26T14:11:51.920Z,60.69
2017-08-26T14:12:57.762Z,59.16
2017-08-26T14:14:03.591Z,62.22
2017-08-26T14:15:09.118Z,59.27
2017-08-26T14:16:14.715Z,60.51
2017-08-26T14:17:20.255Z,61.64
2017-08-26T14:18:27.150Z,60.24
2017-08-26T14:19:35.278Z,61.90
2017-08-26T14:20:41.625Z,60.81
2017-08-26T14:21:49.139Z,59.41